Morse, Texas
Current Conditions -  °F | °C
As of 5:51 AM on Monday 20 Oct 2014 (Local Time) from KBGD Reporting Station
Haze Haze  
Wind Chill: 56°   Ceiling: Unl
Heat Index: 56°   Visibility: 5mi
Dew Point: 54°   Wind: 5mph
Humidity: 93%   Direction: 280°W
Pressure: 30.07"   Gusts: NA
Location:  36.06°N, 101.48°W
Report Text: KBGD 201051Z AUTO 28004KT 5SM BR CLR 13/12 A3007 RMK AO2 SLP154 T01330122
Loading
Personal Weather Stations






























Interactive Weather Map
Tropical Storm Tracking
New forecast layout! Learn more

10-Day Weather Forecast

Advertisements
Track Severe Weather on mobile